Time;durP1;ratioP1;P1;durP2;ratioP2;P2;SDS_P1;SDS_P2;PMS_P1;PMS_P2;Temp;Humidity;BMP_temperature;BMP_pressure;BME280_temperature;BME280_humidity;BME280_pressure;Samples;Min_cycle;Max_cycle;Signal;HPM_P1;HPM_P2
2022/07/14 00:01:10;;;;;;;8.53;1.93;;;12.60;79.20;;;;;;4999866;28;20034;-68
2022/07/14 00:03:36;;;;;;;6.57;2.10;;;12.60;79.30;;;;;;4989886;28;20149;-68
2022/07/14 00:06:02;;;;;;;8.97;2.43;;;12.60;79.00;;;;;;5001589;28;20120;-68
2022/07/14 00:08:27;;;;;;;7.83;2.30;;;12.50;79.00;;;;;;5003346;28;20956;-68
2022/07/14 00:10:53;;;;;;;9.10;2.17;;;12.50;80.00;;;;;;5002859;28;20068;-68
2022/07/14 00:13:19;;;;;;;11.67;2.93;;;12.50;80.00;;;;;;4999834;28;20050;-68
2022/07/14 00:15:45;;;;;;;6.20;2.50;;;12.50;80.10;;;;;;5007262;28;20104;-68
2022/07/14 00:18:10;;;;;;;5.60;2.27;;;12.50;80.30;;;;;;5006044;28;20034;-68
2022/07/14 00:20:36;;;;;;;7.60;2.30;;;12.50;80.40;;;;;;4990874;28;20041;-69
2022/07/14 00:23:02;;;;;;;9.37;3.13;;;12.40;80.50;;;;;;5023288;28;20491;-68
2022/07/14 00:25:28;;;;;;;7.17;2.50;;;12.40;80.30;;;;;;5006224;28;20537;-69
2022/07/14 00:27:54;;;;;;;7.03;2.60;;;12.40;80.50;;;;;;4991558;28;20054;-69
2022/07/14 00:30:21;;;;;;;7.17;2.67;;;12.50;81.00;;;;;;5021896;28;20045;-69
2022/07/14 00:32:47;;;;;;;7.33;2.23;;;12.50;80.70;;;;;;5001118;28;20702;-69
2022/07/14 00:35:13;;;;;;;6.87;2.27;;;12.50;80.80;;;;;;5001595;28;20644;-69
2022/07/14 00:37:39;;;;;;;8.63;2.40;;;12.50;81.10;;;;;;4994081;28;20663;-68
2022/07/14 00:40:06;;;;;;;14.63;2.60;;;12.50;81.00;;;;;;4985765;28;20296;-69
2022/07/14 00:42:49;;;;;;;9.03;3.33;;;12.60;81.60;;;;;;5006260;28;20046;-69
2022/07/14 00:45:19;;;;;;;13.30;3.17;;;12.60;81.10;;;;;;5005351;28;20289;-69
2022/07/14 00:47:46;;;;;;;10.00;2.83;;;12.60;81.00;;;;;;5004243;28;20713;-69
2022/07/14 00:50:14;;;;;;;5.83;2.70;;;12.60;81.00;;;;;;5003808;28;20304;-69
2022/07/14 00:52:42;;;;;;;7.90;2.50;;;12.50;81.50;;;;;;5006445;28;20301;-68
2022/07/14 00:55:09;;;;;;;7.23;2.90;;;12.50;81.70;;;;;;4990261;28;20745;-69
2022/07/14 00:57:35;;;;;;;7.00;2.93;;;12.50;81.30;;;;;;5005573;28;20442;-69
2022/07/14 01:00:01;;;;;;;6.07;2.30;;;12.40;81.10;;;;;;5006005;28;20359;-69
2022/07/14 01:02:27;;;;;;;5.57;2.40;;;12.50;80.90;;;;;;4986651;28;20293;-69
2022/07/14 01:04:53;;;;;;;10.50;2.97;;;12.40;81.10;;;;;;4990386;28;20289;-69
2022/07/14 01:07:19;;;;;;;6.33;2.50;;;12.40;81.50;;;;;;5003430;28;20046;-69
2022/07/14 01:09:45;;;;;;;6.23;2.30;;;12.40;81.10;;;;;;5003376;28;20545;-69
2022/07/14 01:12:11;;;;;;;7.87;2.70;;;12.30;80.80;;;;;;4984120;28;20304;-69
2022/07/14 01:14:39;;;;;;;5.53;2.00;;;12.20;80.80;;;;;;5000609;28;20289;-69
2022/07/14 01:17:06;;;;;;;6.80;2.13;;;12.20;80.70;;;;;;5002184;28;20380;-69
2022/07/14 01:19:33;;;;;;;5.67;2.37;;;12.10;80.70;;;;;;5001179;28;20385;-69
2022/07/14 01:21:59;;;;;;;4.73;2.37;;;12.10;80.90;;;;;;5005608;28;20381;-69
2022/07/14 01:24:27;;;;;;;9.23;2.60;;;12.10;80.90;;;;;;5002766;28;20366;-69
2022/07/14 01:26:53;;;;;;;9.53;2.97;;;12.00;80.60;;;;;;5003304;28;20363;-69
2022/07/14 01:29:19;;;;;;;11.20;3.00;;;12.00;80.50;;;;;;4989621;28;20772;-69
2022/07/14 01:31:46;;;;;;;8.93;2.17;;;11.90;80.30;;;;;;4964088;28;20293;-69
2022/07/14 01:34:11;;;;;;;9.80;2.23;;;11.90;80.20;;;;;;5001853;28;20398;-69
2022/07/14 01:36:38;;;;;;;8.10;2.03;;;11.80;80.30;;;;;;5004343;28;20300;-69
2022/07/14 01:39:06;;;;;;;7.88;2.47;;;11.80;81.20;;;;;;4992275;28;20518;-69
2022/07/14 01:41:32;;;;;;;9.55;2.60;;;11.80;81.10;;;;;;4992757;28;20045;-69
2022/07/14 01:43:58;;;;;;;4.70;2.23;;;11.70;81.30;;;;;;5002148;28;20498;-69
2022/07/14 01:46:24;;;;;;;5.95;2.42;;;11.70;81.10;;;;;;5005423;28;20359;-69
2022/07/14 01:48:50;;;;;;;6.33;2.27;;;11.60;80.80;;;;;;4997241;28;20042;-69
2022/07/14 01:51:16;;;;;;;6.20;2.17;;;11.60;80.70;;;;;;4989125;28;20099;-69
2022/07/14 01:53:42;;;;;;;8.65;2.30;;;11.50;81.10;;;;;;5005925;28;20042;-69
2022/07/14 01:56:09;;;;;;;7.17;2.97;;;11.40;80.90;;;;;;4986300;28;20034;-69
2022/07/14 01:58:35;;;;;;;6.72;2.00;;;11.40;80.80;;;;;;5002162;28;20058;-69
2022/07/14 02:03:45;;;;;;;5.72;2.10;;;11.40;81.00;;;;;;5000232;28;20749;-69
2022/07/14 02:06:11;;;;;;;7.63;2.50;;;11.30;81.10;;;;;;4999389;28;20041;-69
2022/07/14 02:08:39;;;;;;;7.13;2.38;;;11.30;81.90;;;;;;5003456;28;20387;-69
2022/07/14 02:13:49;;;;;;;10.43;2.67;;;11.30;81.80;;;;;;5004235;28;20133;-69
2022/07/14 02:16:14;;;;;;;9.63;2.40;;;11.20;81.70;;;;;;5000894;28;20145;-69
2022/07/14 02:18:41;;;;;;;6.53;2.47;;;11.20;81.80;;;;;;5001374;28;20049;-69
2022/07/14 02:21:06;;;;;;;6.35;2.65;;;11.20;82.00;;;;;;5005927;28;20123;-69
2022/07/14 02:23:32;;;;;;;6.33;2.20;;;11.20;82.30;;;;;;4995520;28;20120;-69
2022/07/14 02:25:58;;;;;;;5.70;2.60;;;11.10;82.70;;;;;;5005586;28;20046;-69
2022/07/14 02:28:24;;;;;;;5.47;2.17;;;11.10;83.40;;;;;;4997245;28;20049;-69
2022/07/14 02:30:51;;;;;;;8.23;2.80;;;11.10;82.70;;;;;;5020868;28;20273;-69
2022/07/14 02:33:17;;;;;;;5.82;2.40;;;11.00;82.40;;;;;;5015754;28;20057;-69
2022/07/14 02:35:43;;;;;;;5.68;2.40;;;11.00;82.20;;;;;;5005006;28;20076;-69
2022/07/14 02:38:09;;;;;;;5.47;2.77;;;11.00;82.40;;;;;;5004131;28;20046;-69
2022/07/14 02:40:34;;;;;;;6.20;2.60;;;11.00;83.00;;;;;;5004910;28;20052;-69
2022/07/14 02:43:01;;;;;;;6.70;2.40;;;11.00;83.00;;;;;;5003865;28;20057;-69
2022/07/14 02:45:26;;;;;;;5.60;2.38;;;11.00;82.90;;;;;;5005263;28;20045;-69
2022/07/14 02:47:52;;;;;;;7.73;2.83;;;10.90;82.40;;;;;;5004493;28;20552;-69
2022/07/14 02:50:18;;;;;;;6.33;2.60;;;10.90;82.20;;;;;;5005738;28;20049;-69
2022/07/14 02:52:43;;;;;;;7.03;2.47;;;10.90;82.30;;;;;;5005185;28;20077;-69
2022/07/14 02:55:09;;;;;;;6.20;2.33;;;10.80;82.30;;;;;;4988515;28;20487;-69
2022/07/14 02:57:35;;;;;;;8.37;2.40;;;10.80;82.10;;;;;;4987960;28;20402;-68
2022/07/14 03:00:00;;;;;;;7.13;2.50;;;10.80;82.10;;;;;;4988446;28;20038;-68
2022/07/14 03:02:26;;;;;;;6.80;2.13;;;10.80;82.10;;;;;;5005617;28;20057;-68
2022/07/14 03:04:52;;;;;;;8.03;2.70;;;10.80;82.00;;;;;;4972266;28;20037;-69
2022/07/14 03:07:18;;;;;;;10.57;2.83;;;10.70;82.00;;;;;;4987586;28;20422;-69
2022/07/14 03:09:43;;;;;;;6.15;2.60;;;10.70;82.00;;;;;;5003285;28;20088;-69
2022/07/14 03:12:09;;;;;;;5.23;2.70;;;10.70;82.10;;;;;;4987325;28;20096;-69
2022/07/14 03:14:35;;;;;;;8.27;2.47;;;10.70;81.90;;;;;;5004178;28;20053;-69
2022/07/14 03:17:01;;;;;;;6.63;3.10;;;10.70;82.10;;;;;;5001246;28;20368;-69
2022/07/14 03:19:26;;;;;;;7.80;2.67;;;10.70;82.10;;;;;;5003622;28;20038;-69
2022/07/14 03:21:53;;;;;;;8.23;2.80;;;10.70;82.10;;;;;;5003605;28;20084;-69
2022/07/14 03:24:20;;;;;;;7.18;2.30;;;10.70;81.90;;;;;;4988174;28;20084;-69
2022/07/14 03:26:46;;;;;;;4.50;1.85;;;10.70;82.00;;;;;;5002530;28;20081;-69
2022/07/14 03:29:12;;;;;;;6.13;3.45;;;10.70;81.90;;;;;;4987690;28;20033;-69
2022/07/14 03:31:38;;;;;;;6.68;2.85;;;10.70;81.80;;;;;;4970613;28;20049;-69
2022/07/14 03:34:04;;;;;;;9.63;2.70;;;10.70;81.80;;;;;;4999289;28;20042;-69
2022/07/14 03:36:30;;;;;;;7.65;2.90;;;10.70;82.00;;;;;;4990092;28;20092;-69
2022/07/14 03:38:56;;;;;;;4.77;2.30;;;10.70;82.90;;;;;;4991873;28;20045;-69
2022/07/14 03:41:21;;;;;;;9.30;2.60;;;10.70;82.90;;;;;;4992256;28;20099;-69
2022/07/14 03:43:47;;;;;;;5.13;2.80;;;10.70;83.10;;;;;;5007998;28;20075;-69
2022/07/14 03:46:13;;;;;;;8.63;3.10;;;10.70;84.00;;;;;;4990554;28;20069;-69
2022/07/14 03:48:39;;;;;;;8.20;2.73;;;10.60;84.00;;;;;;4980318;28;20050;-69
2022/07/14 03:51:06;;;;;;;6.95;3.60;;;10.60;83.70;;;;;;4997283;28;20045;-69
2022/07/14 03:53:32;;;;;;;7.63;3.50;;;10.60;84.50;;;;;;5008065;28;20049;-69
2022/07/14 03:55:58;;;;;;;7.63;3.20;;;10.70;84.30;;;;;;5005656;28;20376;-69
2022/07/14 03:58:25;;;;;;;5.40;3.10;;;10.70;84.30;;;;;;5007222;28;20120;-69
2022/07/14 04:00:51;;;;;;;4.97;2.92;;;10.70;84.30;;;;;;4991797;28;20521;-69
2022/07/14 04:03:17;;;;;;;8.85;3.00;;;10.80;85.30;;;;;;5007526;28;20081;-69
2022/07/14 04:05:43;;;;;;;6.70;2.70;;;10.80;85.20;;;;;;4971604;28;20046;-69
2022/07/14 04:08:10;;;;;;;5.13;2.55;;;10.80;84.80;;;;;;5005152;28;20277;-69
2022/07/14 04:10:36;;;;;;;5.68;2.60;;;10.90;84.90;;;;;;4991036;28;20074;-69
2022/07/14 04:13:01;;;;;;;5.53;2.50;;;11.00;85.00;;;;;;4972841;28;20054;-69
2022/07/14 04:15:28;;;;;;;6.17;2.70;;;11.00;85.20;;;;;;4990333;28;20494;-70
2022/07/14 04:17:55;;;;;;;8.18;3.05;;;11.00;84.80;;;;;;5006672;28;20103;-69
2022/07/14 04:20:21;;;;;;;7.88;2.67;;;11.10;84.50;;;;;;5007452;28;20038;-69
2022/07/14 04:22:48;;;;;;;8.38;3.38;;;11.10;84.40;;;;;;5006137;28;20097;-69
2022/07/14 04:25:14;;;;;;;7.57;2.65;;;11.10;84.30;;;;;;5005002;28;20121;-69
2022/07/14 04:27:40;;;;;;;11.10;2.85;;;11.20;84.30;;;;;;5002921;28;20053;-69
2022/07/14 04:30:10;;;;;;;7.38;2.95;;;11.30;84.20;;;;;;5004271;28;20081;-69
2022/07/14 04:32:36;;;;;;;7.43;2.70;;;11.40;84.10;;;;;;5005213;28;20048;-69
2022/07/14 04:35:03;;;;;;;8.73;3.03;;;11.40;84.00;;;;;;4971025;28;20046;-69
2022/07/14 04:37:29;;;;;;;6.35;3.10;;;11.50;84.10;;;;;;5003400;28;20065;-69
2022/07/14 04:39:55;;;;;;;9.43;2.90;;;11.60;84.50;;;;;;5006951;28;20050;-69
2022/07/14 04:42:22;;;;;;;8.53;2.57;;;11.70;84.30;;;;;;5023167;28;20046;-69
2022/07/14 04:44:48;;;;;;;9.05;3.10;;;11.80;84.30;;;;;;5006573;28;20041;-69
2022/07/14 04:47:14;;;;;;;10.73;2.83;;;12.30;85.50;;;;;;5005553;28;20057;-69
2022/07/14 04:52:24;;;;;;;7.82;2.17;;;14.30;82.60;;;;;;5006955;28;20046;-69
2022/07/14 04:54:50;;;;;;;7.57;2.37;;;15.00;80.30;;;;;;5007003;28;20514;-69
2022/07/14 04:57:16;;;;;;;7.50;2.00;;;15.70;79.10;;;;;;4989480;28;20045;-69
2022/07/14 04:59:42;;;;;;;4.17;1.37;;;16.40;76.90;;;;;;4989608;28;20042;-69
2022/07/14 05:02:08;;;;;;;6.03;1.70;;;17.30;75.00;;;;;;5005076;28;20452;-69
2022/07/14 05:04:34;;;;;;;6.70;2.10;;;18.10;72.30;;;;;;4997791;28;20066;-69
2022/07/14 05:07:00;;;;;;;3.90;1.50;;;18.90;70.00;;;;;;5005998;28;20292;-69
2022/07/14 05:09:26;;;;;;;7.23;1.50;;;19.60;68.00;;;;;;5005833;28;20649;-69
2022/07/14 05:11:55;;;;;;;8.13;1.50;;;20.20;65.50;;;;;;4989706;28;20176;-68
2022/07/14 05:14:20;;;;;;;4.50;1.47;;;20.60;64.10;;;;;;5006635;28;20121;-69
2022/07/14 05:16:48;;;;;;;5.30;1.37;;;21.10;62.20;;;;;;5005901;28;20379;-68
2022/07/14 05:19:15;;;;;;;5.37;1.13;;;21.60;61.70;;;;;;5005108;28;20428;-68
2022/07/14 05:21:41;;;;;;;5.23;1.13;;;21.90;60.10;;;;;;5001382;28;20300;-69
2022/07/14 05:24:07;;;;;;;4.27;1.10;;;22.30;59.40;;;;;;4982078;28;21021;-69
2022/07/14 05:26:32;;;;;;;4.10;0.63;;;22.60;58.30;;;;;;4990150;28;20092;-70
2022/07/14 05:28:58;;;;;;;5.63;1.33;;;22.70;57.70;;;;;;5002482;28;20112;-69
2022/07/14 05:31:24;;;;;;;4.57;1.73;;;22.80;56.30;;;;;;5006260;28;20073;-69
2022/07/14 05:33:50;;;;;;;6.33;1.20;;;23.00;55.80;;;;;;5004723;28;20104;-69
2022/07/14 05:36:16;;;;;;;3.40;0.80;;;23.20;55.20;;;;;;5005608;28;20288;-69
2022/07/14 05:38:42;;;;;;;3.83;0.87;;;23.40;54.90;;;;;;5005598;28;20129;-69
2022/07/14 05:41:08;;;;;;;6.13;1.17;;;23.60;54.60;;;;;;5005231;28;20120;-69
2022/07/14 05:43:34;;;;;;;5.43;1.10;;;23.70;54.40;;;;;;5014870;28;20095;-69
2022/07/14 05:46:18;;;;;;;8.17;1.30;;;23.30;54.30;;;;;;5005161;28;20514;-69
2022/07/14 05:48:44;;;;;;;4.70;1.13;;;23.00;54.80;;;;;;5005707;28;20430;-69
2022/07/14 05:51:12;;;;;;;4.07;0.90;;;23.10;55.50;;;;;;5005349;28;20095;-69
2022/07/14 05:53:39;;;;;;;7.03;0.70;;;23.50;54.90;;;;;;5005836;28;20046;-69
2022/07/14 05:56:06;;;;;;;4.37;0.80;;;23.50;54.40;;;;;;5015488;28;20078;-69
2022/07/14 05:58:33;;;;;;;2.83;0.53;;;23.90;53.50;;;;;;5005830;28;20043;-69
2022/07/14 06:00:59;;;;;;;1.93;0.50;;;24.00;53.20;;;;;;5005892;28;20095;-69
2022/07/14 06:03:25;;;;;;;6.27;0.70;;;24.10;52.90;;;;;;5005979;28;20225;-69
2022/07/14 06:05:51;;;;;;;4.33;0.63;;;24.20;52.50;;;;;;4988739;28;20152;-69
2022/07/14 06:08:17;;;;;;;4.60;0.70;;;24.20;52.50;;;;;;4972928;28;20057;-69
2022/07/14 06:10:43;;;;;;;4.70;0.83;;;24.20;52.40;;;;;;4996544;28;20035;-69
2022/07/14 06:13:09;;;;;;;3.73;1.10;;;24.30;52.00;;;;;;5002961;28;20121;-69
2022/07/14 06:15:35;;;;;;;4.47;0.80;;;24.30;52.00;;;;;;5005912;28;20637;-69
2022/07/14 06:18:01;;;;;;;4.00;0.57;;;24.30;52.20;;;;;;5004694;28;20044;-69
2022/07/14 06:20:27;;;;;;;1.93;0.30;;;24.40;51.30;;;;;;4989953;28;20445;-69
2022/07/14 06:22:53;;;;;;;5.70;0.53;;;24.40;51.00;;;;;;5009918;28;20050;-69
2022/07/14 06:25:18;;;;;;;2.53;0.30;;;24.10;51.40;;;;;;5005154;28;20049;-70
2022/07/14 06:27:44;;;;;;;3.73;0.90;;;23.90;51.40;;;;;;4998575;28;20050;-69
2022/07/14 06:30:10;;;;;;;4.43;0.60;;;23.80;51.70;;;;;;4985955;28;20069;-69
2022/07/14 06:32:40;;;;;;;4.33;0.50;;;23.80;52.20;;;;;;5005581;28;20077;-70
2022/07/14 06:35:07;;;;;;;3.83;0.33;;;24.20;51.30;;;;;;5005429;28;20038;-68
2022/07/14 06:37:34;;;;;;;5.60;0.53;;;23.80;51.10;;;;;;5004777;28;20426;-68
2022/07/14 06:40:04;;;;;;;2.57;0.30;;;23.80;51.20;;;;;;5005046;28;20049;-69
2022/07/14 06:42:30;;;;;;;4.23;0.40;;;23.70;51.50;;;;;;4997457;28;20050;-68
2022/07/14 06:44:55;;;;;;;4.53;0.40;;;23.80;52.00;;;;;;4981909;28;20046;-68
2022/07/14 06:47:21;;;;;;;1.80;0.20;;;23.90;51.70;;;;;;4987868;28;20057;-69
2022/07/14 06:49:47;;;;;;;5.83;0.43;;;23.70;51.50;;;;;;4988040;28;20125;-69
2022/07/14 06:52:12;;;;;;;2.53;0.33;;;23.50;51.50;;;;;;5004188;28;20097;-69
2022/07/14 06:54:38;;;;;;;3.07;0.50;;;23.30;52.70;;;;;;5003489;28;20084;-69
2022/07/14 06:57:04;;;;;;;2.40;0.20;;;23.40;52.80;;;;;;5004111;28;20096;-69
2022/07/14 06:59:30;;;;;;;3.10;0.30;;;23.30;52.50;;;;;;5005060;28;20532;-69
2022/07/14 07:01:56;;;;;;;2.07;0.23;;;22.80;53.30;;;;;;5003315;28;20427;-68
2022/07/14 07:04:23;;;;;;;3.90;0.20;;;22.00;54.10;;;;;;4982042;28;20053;-68
2022/07/14 07:06:50;;;;;;;1.67;0.30;;;21.60;55.00;;;;;;4990565;28;20526;-68
2022/07/14 07:09:19;;;;;;;5.03;0.40;;;21.30;55.80;;;;;;4998518;28;20451;-68
2022/07/14 07:11:45;;;;;;;2.47;0.60;;;21.00;56.60;;;;;;4997649;28;20066;-68
2022/07/14 07:14:12;;;;;;;4.90;0.53;;;20.90;57.40;;;;;;4979132;28;20042;-68
2022/07/14 07:16:38;;;;;;;2.90;0.27;;;20.90;57.40;;;;;;4991943;28;20068;-68
2022/07/14 07:19:04;;;;;;;2.20;0.30;;;20.90;56.70;;;;;;4979560;28;20465;-68
2022/07/14 07:21:30;;;;;;;1.47;0.20;;;20.90;56.80;;;;;;5004330;28;20034;-68
2022/07/14 07:23:56;;;;;;;2.57;0.60;;;20.80;56.70;;;;;;4999350;28;20578;-68
2022/07/14 07:26:25;;;;;;;2.70;0.37;;;20.80;57.10;;;;;;4998039;28;20323;-69
2022/07/14 07:28:53;;;;;;;3.80;0.20;;;20.90;57.50;;;;;;4971998;28;20038;-68
2022/07/14 07:31:20;;;;;;;2.63;0.20;;;20.80;57.80;;;;;;4984966;28;20056;-68
2022/07/14 07:33:46;;;;;;;1.90;0.20;;;20.70;57.10;;;;;;4983474;28;20050;-68
2022/07/14 07:36:12;;;;;;;1.87;0.50;;;20.50;56.90;;;;;;5006130;28;20048;-69
2022/07/14 07:38:38;;;;;;;0.30;0.10;;;20.50;57.00;;;;;;4989316;28;20034;-68
2022/07/14 07:41:03;;;;;;;3.00;0.23;;;20.40;57.10;;;;;;4983823;28;20634;-69
2022/07/14 07:43:30;;;;;;;1.80;0.30;;;20.60;56.50;;;;;;4995534;28;20273;-69
2022/07/14 07:45:56;;;;;;;2.87;0.13;;;20.60;57.00;;;;;;4995255;28;20453;-69
2022/07/14 07:48:22;;;;;;;1.33;0.10;;;20.80;56.20;;;;;;4997179;28;20050;-69
2022/07/14 07:50:48;;;;;;;1.23;0.20;;;20.90;55.20;;;;;;4983504;28;20390;-69
2022/07/14 07:53:14;;;;;;;2.50;0.20;;;21.00;54.50;;;;;;4999916;28;20034;-69
2022/07/14 07:55:41;;;;;;;1.77;0.10;;;20.90;54.00;;;;;;4978739;28;20042;-68
2022/07/14 07:58:07;;;;;;;1.67;0.20;;;20.90;54.40;;;;;;5000055;28;20046;-68
2022/07/14 08:00:34;;;;;;;2.10;0.20;;;20.90;54.90;;;;;;4988439;28;20067;-69
2022/07/14 08:03:02;;;;;;;2.67;0.20;;;21.00;54.90;;;;;;5001798;28;20145;-69
2022/07/14 08:05:30;;;;;;;2.43;0.30;;;21.20;54.80;;;;;;4995734;28;20073;-69
2022/07/14 08:07:56;;;;;;;1.80;0.20;;;21.20;54.40;;;;;;5010791;28;20117;-69
2022/07/14 08:10:22;;;;;;;1.80;0.10;;;21.30;54.80;;;;;;4997439;28;20487;-69
2022/07/14 08:12:48;;;;;;;2.30;0.40;;;21.40;55.20;;;;;;4999522;28;20486;-68
2022/07/14 08:15:14;;;;;;;1.93;0.10;;;21.60;54.40;;;;;;4999538;28;20034;-69
2022/07/14 08:17:40;;;;;;;1.20;0.20;;;21.60;54.20;;;;;;4993645;28;20116;-69
2022/07/14 08:20:10;;;;;;;3.87;1.13;;;21.60;53.70;;;;;;5000764;28;20120;-68
2022/07/14 08:22:37;;;;;;;3.93;0.30;;;21.60;54.00;;;;;;4997915;28;20529;-68
2022/07/14 08:25:06;;;;;;;1.33;0.30;;;21.60;54.30;;;;;;4979266;28;20494;-68
2022/07/14 08:27:33;;;;;;;2.60;0.30;;;21.60;53.60;;;;;;4980574;28;20046;-68
2022/07/14 08:29:59;;;;;;;1.63;0.10;;;21.60;53.80;;;;;;4981756;28;20097;-69
2022/07/14 08:32:46;;;;;;;1.90;0.20;;;21.80;53.70;;;;;;5001618;28;20050;-69
2022/07/14 08:35:14;;;;;;;0.93;0.27;;;21.90;53.10;;;;;;4995774;28;20544;-69
2022/07/14 08:37:40;;;;;;;2.73;0.33;;;22.00;53.10;;;;;;4993546;28;20438;-69
2022/07/14 08:40:12;;;;;;;1.93;0.20;;;22.00;53.00;;;;;;4992906;28;20041;-69
2022/07/14 08:42:41;;;;;;;1.60;0.13;;;22.00;53.20;;;;;;5003576;28;20045;-69
2022/07/14 08:45:12;;;;;;;2.90;0.27;;;21.90;53.60;;;;;;5003798;28;20439;-68
2022/07/14 08:47:39;;;;;;;2.53;0.30;;;21.90;53.40;;;;;;5004723;28;20049;-69
2022/07/14 08:50:07;;;;;;;2.13;0.13;;;21.80;54.10;;;;;;5007092;28;20038;-69
2022/07/14 08:52:33;;;;;;;1.80;0.20;;;21.90;54.10;;;;;;5003906;28;20121;-69
2022/07/14 08:54:59;;;;;;;1.87;0.30;;;22.10;54.00;;;;;;5007224;28;20125;-69
2022/07/14 08:57:26;;;;;;;2.53;0.30;;;22.30;53.90;;;;;;5006289;28;20042;-69
2022/07/14 08:59:51;;;;;;;1.67;0.40;;;22.30;54.50;;;;;;5007534;28;20034;-69
2022/07/14 09:02:17;;;;;;;1.37;0.20;;;22.40;54.40;;;;;;4989216;28;20416;-69
2022/07/14 09:04:46;;;;;;;1.73;0.10;;;22.40;53.40;;;;;;5000618;28;20057;-69
2022/07/14 09:07:32;;;;;;;1.83;0.20;;;22.40;52.30;;;;;;4985929;28;20503;-69
2022/07/14 09:10:09;;;;;;;1.37;0.20;;;22.30;52.90;;;;;;4995638;28;20097;-69
2022/07/14 09:12:36;;;;;;;1.83;0.10;;;22.10;54.10;;;;;;4998980;28;20038;-69
2022/07/14 09:17:53;;;;;;;2.33;0.30;;;22.20;53.70;;;;;;5001300;28;20152;-68
2022/07/14 09:20:20;;;;;;;3.43;0.30;;;22.10;53.50;;;;;;4988413;28;20038;-68
2022/07/14 09:22:46;;;;;;;2.83;0.20;;;22.20;53.60;;;;;;4997551;28;20150;-68
2022/07/14 09:25:17;;;;;;;3.20;0.30;;;22.20;53.40;;;;;;4993208;28;20101;-68
2022/07/14 09:27:47;;;;;;;1.93;0.27;;;22.20;52.50;;;;;;4987922;28;20414;-68
2022/07/14 09:30:15;;;;;;;1.60;0.30;;;22.20;53.00;;;;;;5000974;28;20046;-68
2022/07/14 09:32:47;;;;;;;2.20;0.30;;;22.40;53.30;;;;;;4967305;28;20407;-68
2022/07/14 09:35:17;;;;;;;1.07;0.30;;;22.70;53.10;;;;;;4993099;28;20038;-68
2022/07/14 09:37:43;;;;;;;3.73;0.20;;;22.80;52.40;;;;;;4993799;28;20046;-68
2022/07/14 09:40:13;;;;;;;3.77;0.30;;;22.90;52.30;;;;;;4992273;28;20042;-68
2022/07/14 09:43:06;;;;;;;2.27;0.20;;;22.80;51.60;;;;;;5005825;28;20482;-69
2022/07/14 09:45:35;;;;;;;2.30;0.20;;;22.70;51.80;;;;;;4985642;28;20046;-68
2022/07/14 09:48:08;;;;;;;2.50;0.13;;;22.50;51.80;;;;;;4987581;28;20053;-68
2022/07/14 09:50:37;;;;;;;3.57;0.30;;;22.30;52.30;;;;;;4983516;28;20069;-68
2022/07/14 09:53:16;;;;;;;4.90;0.30;;;22.20;52.80;;;;;;4998467;28;20081;-68
2022/07/14 09:56:03;;;;;;;3.07;0.37;;;22.00;53.80;;;;;;5014641;28;20099;-68
2022/07/14 09:58:54;;;;;;;3.20;0.33;;;21.80;54.40;;;;;;4985384;28;20046;-68
2022/07/14 10:01:21;;;;;;;2.73;0.20;;;21.70;54.20;;;;;;4999446;28;20080;-68
2022/07/14 10:03:50;;;;;;;0.73;0.17;;;21.70;54.30;;;;;;4982095;28;20089;-68
2022/07/14 10:06:16;;;;;;;5.63;0.40;;;21.70;54.80;;;;;;4993435;28;20405;-68
2022/07/14 10:08:46;;;;;;;2.10;0.30;;;21.90;54.70;;;;;;4998091;28;20450;-68
2022/07/14 10:11:12;;;;;;;2.27;0.50;;;21.90;54.80;;;;;;4999087;28;20506;-69
2022/07/14 10:13:39;;;;;;;2.80;0.23;;;21.90;54.70;;;;;;4966973;28;20038;-69
2022/07/14 10:16:05;;;;;;;2.43;0.23;;;21.90;55.40;;;;;;4981052;28;20511;-69
2022/07/14 10:18:32;;;;;;;2.17;0.20;;;22.00;54.90;;;;;;4979498;28;20046;-69
2022/07/14 10:21:00;;;;;;;1.77;0.20;;;22.20;55.10;;;;;;4980725;28;20042;-69
2022/07/14 10:23:29;;;;;;;2.30;0.30;;;22.40;55.00;;;;;;4994311;28;20510;-69
2022/07/14 10:25:56;;;;;;;1.90;0.33;;;22.60;54.00;;;;;;5003899;28;20513;-69
2022/07/14 10:28:22;;;;;;;2.60;0.20;;;22.60;53.20;;;;;;5003216;28;20395;-69
2022/07/14 10:31:23;;;;;;;2.73;0.30;;;22.70;53.40;;;;;;4984128;28;20069;-69
2022/07/14 10:34:17;;;;;;;1.87;0.30;;;22.60;53.00;;;;;;4979457;28;20502;-69
2022/07/14 10:36:56;;;;;;;1.83;0.20;;;22.50;53.40;;;;;;4998990;28;20048;-69
2022/07/14 10:39:41;;;;;;;1.87;0.30;;;22.30;54.10;;;;;;5004457;28;20042;-69
2022/07/14 10:42:41;;;;;;;3.08;0.63;;;22.40;53.70;;;;;;5000555;28;20039;-69
2022/07/14 10:45:07;;;;;;;1.97;0.20;;;22.30;53.90;;;;;;4984392;28;20048;-69
2022/07/14 10:47:52;;;;;;;2.43;0.30;;;22.20;54.10;;;;;;5004130;28;20491;-69
2022/07/14 10:50:23;;;;;;;2.67;0.30;;;22.20;53.90;;;;;;5005424;28;20049;-69
2022/07/14 10:52:54;;;;;;;1.53;0.33;;;22.00;54.20;;;;;;5003012;28;20038;-69
2022/07/14 10:55:23;;;;;;;1.50;0.20;;;21.90;54.60;;;;;;5007168;28;20050;-69
2022/07/14 10:58:07;;;;;;;1.63;0.30;;;21.90;54.70;;;;;;5006814;28;20836;-69
2022/07/14 11:00:42;;;;;;;2.17;0.40;;;21.90;54.00;;;;;;5000543;28;20371;-69
2022/07/14 11:03:21;;;;;;;2.97;0.30;;;21.70;54.10;;;;;;5005885;28;20061;-69
2022/07/14 11:06:08;;;;;;;1.10;0.13;;;21.60;54.50;;;;;;4989516;28;20490;-69
2022/07/14 11:08:42;;;;;;;3.87;0.50;;;21.50;54.40;;;;;;5014496;28;20234;-69
2022/07/14 11:11:23;;;;;;;4.13;0.20;;;21.40;54.70;;;;;;5013968;28;20122;-69
2022/07/14 11:14:01;;;;;;;1.97;0.43;;;21.40;54.90;;;;;;5013672;28;20609;-69
2022/07/14 11:16:50;;;;;;;1.87;0.27;;;21.50;55.80;;;;;;4995610;28;20051;-69
2022/07/14 11:19:37;;;;;;;1.90;0.20;;;21.70;55.40;;;;;;5015182;28;20045;-69
2022/07/14 11:22:21;;;;;;;3.87;0.13;;;22.00;54.30;;;;;;5003439;28;20038;-69
2022/07/14 11:24:58;;;;;;;2.53;0.43;;;22.30;53.20;;;;;;5002718;28;20026;-69
2022/07/14 11:27:35;;;;;;;0.93;0.17;;;22.50;53.00;;;;;;4996880;28;20071;-69
2022/07/14 11:30:22;;;;;;;2.37;0.40;;;22.40;52.80;;;;;;4999147;28;20033;-69
2022/07/14 11:33:05;;;;;;;2.17;0.30;;;22.40;52.90;;;;;;4986053;28;20046;-69
2022/07/14 11:38:40;;;;;;;2.33;0.30;;;22.40;52.00;;;;;;4999980;28;20097;-69
2022/07/14 11:41:12;;;;;;;2.27;0.40;;;22.70;51.20;;;;;;5004618;28;20068;-69
2022/07/14 11:43:50;;;;;;;3.40;0.20;;;22.90;51.80;;;;;;5006064;28;20486;-69
2022/07/14 11:46:21;;;;;;;2.93;0.50;;;23.10;49.70;;;;;;5006764;28;20108;-69
2022/07/14 11:48:51;;;;;;;1.30;0.30;;;23.00;48.70;;;;;;5004640;28;20038;-69
2022/07/14 11:51:25;;;;;;;1.33;0.70;;;22.90;48.70;;;;;;4995945;28;20088;-69
2022/07/14 11:53:56;;;;;;;2.03;0.20;;;22.60;50.00;;;;;;5001481;28;20050;-69
2022/07/14 11:56:23;;;;;;;0.97;0.17;;;22.70;50.50;;;;;;4997026;28;20067;-69
2022/07/14 11:58:50;;;;;;;1.13;0.20;;;22.70;50.30;;;;;;4989668;28;20072;-69
2022/07/14 12:01:16;;;;;;;2.83;0.30;;;22.50;49.60;;;;;;5002056;28;20045;-69
2022/07/14 12:03:43;;;;;;;1.83;0.40;;;22.40;50.20;;;;;;4986884;28;20053;-69
2022/07/14 12:06:09;;;;;;;0.60;0.20;;;22.30;50.60;;;;;;5003165;28;20473;-69
2022/07/14 12:08:39;;;;;;;0.60;0.10;;;22.30;50.60;;;;;;4987667;28;20049;-69
2022/07/14 12:11:12;;;;;;;3.67;0.43;;;22.40;50.60;;;;;;5005202;28;20046;-69
2022/07/14 12:13:50;;;;;;;2.30;0.20;;;22.40;50.60;;;;;;5001702;28;20129;-69
2022/07/14 12:16:17;;;;;;;1.90;0.20;;;22.40;50.20;;;;;;5006442;28;20057;-69
2022/07/14 12:18:43;;;;;;;1.20;0.20;;;22.40;51.00;;;;;;5006973;28;20186;-69
2022/07/14 12:21:09;;;;;;;2.80;0.43;;;22.60;50.40;;;;;;5001446;28;20120;-69
2022/07/14 12:23:35;;;;;;;3.13;0.30;;;22.70;50.20;;;;;;5005324;28;20076;-69
2022/07/14 12:26:02;;;;;;;2.47;0.20;;;22.80;50.70;;;;;;4985035;28;20100;-70
2022/07/14 12:28:28;;;;;;;2.57;0.30;;;22.90;50.10;;;;;;5006532;28;20044;-69
2022/07/14 12:30:57;;;;;;;2.40;0.30;;;23.30;50.50;;;;;;4983474;28;20491;-69
2022/07/14 12:33:28;;;;;;;1.83;0.30;;;23.50;47.20;;;;;;5002061;28;20065;-69
2022/07/14 12:35:59;;;;;;;1.83;0.20;;;23.50;47.30;;;;;;5020191;28;20034;-69
2022/07/14 12:38:26;;;;;;;2.23;0.20;;;23.30;47.20;;;;;;4998514;28;20569;-69
2022/07/14 12:41:03;;;;;;;2.07;0.27;;;23.30;47.20;;;;;;4989610;28;20037;-69
2022/07/14 12:43:32;;;;;;;1.67;0.20;;;23.30;46.60;;;;;;5015153;28;20030;-69
2022/07/14 12:46:08;;;;;;;3.23;0.20;;;23.30;47.10;;;;;;5021272;28;20068;-69
2022/07/14 12:48:48;;;;;;;3.47;0.20;;;23.30;48.40;;;;;;5021543;28;20553;-69
2022/07/14 12:51:23;;;;;;;4.20;0.20;;;23.40;47.20;;;;;;5006057;28;20116;-69
2022/07/14 12:54:02;;;;;;;1.55;0.20;;;23.60;47.30;;;;;;5006084;28;20038;-69
2022/07/14 12:56:45;;;;;;;1.73;0.10;;;23.80;46.20;;;;;;4989363;28;20494;-69
2022/07/14 12:59:19;;;;;;;1.43;0.13;;;23.90;46.50;;;;;;5006318;28;20494;-69
2022/07/14 13:01:55;;;;;;;2.15;0.20;;;24.00;46.40;;;;;;5006087;28;20038;-69
2022/07/14 13:04:45;;;;;;;1.77;0.10;;;23.90;44.50;;;;;;5005303;28;20081;-69
2022/07/14 13:07:19;;;;;;;1.17;0.17;;;24.00;44.80;;;;;;5021403;28;20085;-69